Terminal Aerodrome Forecast
Issued by NWS

Home | Current Version | Previous Version | Text Only | Print | Product List | Glossary On
Versions: 1 2 3 4 5 6 7 8 9 10 11 12 13 14 15 16 17 18 19 20 21 22
000
FTUS42 KJAX 032321
TAFCRG
TAF
KCRG 032321Z 0400/0424 16005KT P6SM SCT050 SCT250
     FM040300 20003KT P6SM SCT100 SCT250
     FM041500 24007KT P6SM SCT040 SCT250
     FM042000 15008KT P6SM VCTS SCT050CB BKN250=

USA.gov is the U.S. government's official web portal to all federal, state and local government web resources and services.